Time;durP1;ratioP1;P1;durP2;ratioP2;P2;SDS_P1;SDS_P2;PMS_P1;PMS_P2;Temp;Humidity;BMP_temperature;BMP_pressure;BME280_temperature;BME280_humidity;BME280_pressure;Samples;Min_cycle;Max_cycle;Signal;HPM_P1;HPM_P2
2023/08/20 00:01:12;;;;;;;50.88;43.25;;;19.20;99.90;;;;;;5050036;28;20052;-62
2023/08/20 00:03:39;;;;;;;47.10;42.67;;;19.30;99.90;;;;;;5051003;28;20111;-62
2023/08/20 00:06:05;;;;;;;48.85;43.50;;;19.50;99.90;;;;;;5050257;28;20045;-62
2023/08/20 00:08:30;;;;;;;47.67;42.95;;;20.10;99.90;;;;;;5057341;28;20044;-62
2023/08/20 00:10:56;;;;;;;49.42;44.22;;;19.80;99.90;;;;;;5050230;28;20066;-62
2023/08/20 00:13:21;;;;;;;48.45;43.33;;;19.50;99.90;;;;;;5050754;28;20112;-62
2023/08/20 00:15:48;;;;;;;50.13;42.92;;;20.00;99.90;;;;;;5050047;28;20033;-63
2023/08/20 00:18:14;;;;;;;48.42;43.10;;;19.60;99.90;;;;;;5053630;28;20194;-62
2023/08/20 00:20:40;;;;;;;48.05;42.70;;;19.60;99.90;;;;;;5043905;28;20045;-62
2023/08/20 00:23:06;;;;;;;48.38;41.05;;;19.50;99.90;;;;;;5049547;28;20463;-63
2023/08/20 00:25:34;;;;;;;45.08;41.00;;;19.50;99.90;;;;;;5048769;28;20128;-62
2023/08/20 00:28:00;;;;;;;47.08;42.20;;;20.20;99.90;;;;;;5049709;28;20048;-62
2023/08/20 00:30:25;;;;;;;46.67;41.72;;;19.50;99.90;;;;;;5048496;28;20037;-62
2023/08/20 00:32:51;;;;;;;47.50;42.55;;;19.50;99.90;;;;;;5045525;28;20033;-63
2023/08/20 00:35:16;;;;;;;46.97;42.58;;;20.10;99.90;;;;;;5054434;28;20041;-62
2023/08/20 00:37:44;;;;;;;48.28;43.00;;;19.80;99.90;;;;;;5050461;28;20045;-62
2023/08/20 00:40:10;;;;;;;49.05;43.75;;;19.30;99.90;;;;;;5045222;28;20126;-62
2023/08/20 00:42:37;;;;;;;47.35;42.30;;;20.00;99.90;;;;;;5045871;28;20098;-64
2023/08/20 00:45:03;;;;;;;45.95;41.58;;;19.80;99.90;;;;;;5049722;28;20041;-64
2023/08/20 00:47:29;;;;;;;45.53;41.13;;;19.30;99.90;;;;;;5049171;28;20037;-64
2023/08/20 00:49:55;;;;;;;46.85;42.42;;;19.20;99.90;;;;;;5051161;28;20556;-64
2023/08/20 00:52:22;;;;;;;46.45;42.28;;;19.20;99.90;;;;;;5045795;28;20103;-63
2023/08/20 00:54:50;;;;;;;49.17;44.15;;;19.70;99.90;;;;;;5045637;28;20048;-65
2023/08/20 00:57:19;;;;;;;47.50;42.92;;;19.20;99.90;;;;;;5048109;28;20094;-64
2023/08/20 00:59:48;;;;;;;47.60;42.55;;;19.00;99.90;;;;;;5050558;28;20052;-64
2023/08/20 01:02:15;;;;;;;48.20;43.45;;;19.00;99.90;;;;;;5054722;28;20045;-64
2023/08/20 01:04:40;;;;;;;48.75;44.00;;;19.50;99.90;;;;;;5048335;28;20491;-64
2023/08/20 01:07:35;;;;;;;48.42;43.58;;;19.50;99.90;;;;;;5052163;28;20033;-64
2023/08/20 01:10:40;;;;;;;49.63;44.85;;;19.00;99.90;;;;;;5060428;28;20099;-64
2023/08/20 01:13:07;;;;;;;50.03;45.10;;;19.00;99.90;;;;;;5055140;28;20208;-64
2023/08/20 01:15:32;;;;;;;49.42;44.50;;;19.30;99.90;;;;;;5056043;28;20554;-64
2023/08/20 01:17:58;;;;;;;50.35;45.17;;;19.50;99.90;;;;;;5058553;28;20186;-65
2023/08/20 01:20:28;;;;;;;44.88;40.78;;;19.90;99.90;;;;;;5054496;28;20044;-64
2023/08/20 01:23:21;;;;;;;46.00;41.05;;;19.70;99.90;;;;;;5056186;28;20500;-64
2023/08/20 01:26:28;;;;;;;46.40;41.50;;;19.80;99.90;;;;;;5049405;28;20052;-64
2023/08/20 01:28:55;;;;;;;45.30;40.72;;;19.20;99.90;;;;;;5023236;28;20132;-63
2023/08/20 01:31:21;;;;;;;44.25;39.75;;;19.30;99.90;;;;;;5055873;28;20033;-64
2023/08/20 01:33:47;;;;;;;43.78;39.33;;;19.80;99.90;;;;;;5048857;28;20051;-64
2023/08/20 01:36:13;;;;;;;45.10;40.63;;;19.60;99.90;;;;;;5052259;28;20472;-64
2023/08/20 01:38:38;;;;;;;43.17;38.45;;;19.00;99.90;;;;;;5052824;28;20418;-64
2023/08/20 01:41:04;;;;;;;45.28;40.50;;;18.90;99.90;;;;;;5055090;28;20037;-64
2023/08/20 01:43:30;;;;;;;43.85;39.70;;;19.40;99.90;;;;;;5054014;28;20059;-63
2023/08/20 01:45:55;;;;;;;46.17;41.38;;;19.50;99.90;;;;;;5055683;28;20037;-64
2023/08/20 01:48:21;;;;;;;52.35;42.00;;;19.30;99.90;;;;;;5055602;28;20040;-65
2023/08/20 01:50:47;;;;;;;46.65;41.75;;;18.70;99.90;;;;;;5051003;28;20056;-64
2023/08/20 01:53:12;;;;;;;46.03;40.92;;;19.40;99.90;;;;;;5057943;28;20032;-62
2023/08/20 01:55:38;;;;;;;46.53;42.30;;;18.80;99.90;;;;;;5054520;28;20090;-60
2023/08/20 01:58:04;;;;;;;45.95;41.65;;;18.90;99.90;;;;;;5054905;28;20044;-61
2023/08/20 02:00:30;;;;;;;44.22;39.92;;;18.90;99.90;;;;;;5056793;28;20076;-60
2023/08/20 02:02:56;;;;;;;43.17;38.83;;;19.70;99.90;;;;;;5053721;28;20041;-60
2023/08/20 02:05:21;;;;;;;45.90;41.33;;;19.00;99.90;;;;;;5052177;28;20037;-63
2023/08/20 02:07:47;;;;;;;47.17;42.40;;;19.60;99.90;;;;;;5050944;28;20055;-61
2023/08/20 02:10:13;;;;;;;49.80;42.63;;;19.40;99.90;;;;;;5055040;28;20036;-59
2023/08/20 02:12:40;;;;;;;45.53;40.05;;;19.60;99.90;;;;;;5058587;28;20033;-61
2023/08/20 02:15:07;;;;;;;45.42;40.72;;;19.90;99.90;;;;;;5051360;28;20499;-62
2023/08/20 02:17:32;;;;;;;45.78;40.80;;;19.00;99.90;;;;;;5054745;28;20116;-60
2023/08/20 02:19:58;;;;;;;46.42;41.88;;;19.00;99.90;;;;;;5051259;28;20205;-61
2023/08/20 02:22:24;;;;;;;46.03;41.35;;;19.80;99.90;;;;;;5052815;28;20036;-60
2023/08/20 02:24:49;;;;;;;44.70;40.08;;;19.10;99.90;;;;;;5060088;28;20111;-60
2023/08/20 02:27:15;;;;;;;43.90;39.50;;;19.90;99.90;;;;;;5054868;28;20094;-61
2023/08/20 02:29:40;;;;;;;44.80;40.63;;;19.90;99.90;;;;;;5051332;28;20455;-60
2023/08/20 02:32:06;;;;;;;44.80;40.08;;;18.90;99.90;;;;;;5054117;28;20041;-61
2023/08/20 02:34:32;;;;;;;46.72;41.50;;;19.90;99.90;;;;;;5053404;28;20479;-61
2023/08/20 02:36:57;;;;;;;44.75;40.10;;;19.40;99.90;;;;;;5050617;28;20128;-61
2023/08/20 02:39:24;;;;;;;45.70;40.88;;;19.10;99.90;;;;;;5055594;28;20111;-61
2023/08/20 02:41:50;;;;;;;47.70;40.35;;;19.00;99.90;;;;;;5049747;28;20048;-61
2023/08/20 02:44:15;;;;;;;43.67;39.05;;;19.90;99.90;;;;;;5061585;28;20040;-61
2023/08/20 02:46:41;;;;;;;44.10;39.75;;;19.90;99.90;;;;;;5044125;28;21297;-60
2023/08/20 02:49:07;;;;;;;43.30;39.22;;;19.00;99.90;;;;;;5050783;28;20068;-61
2023/08/20 02:51:32;;;;;;;43.95;39.38;;;19.30;99.90;;;;;;5051720;28;20037;-62
2023/08/20 02:53:58;;;;;;;45.53;40.92;;;19.60;99.90;;;;;;5056806;28;20557;-60
2023/08/20 02:56:23;;;;;;;43.47;38.83;;;18.90;99.90;;;;;;5051828;28;20103;-60
2023/08/20 02:58:49;;;;;;;43.40;38.80;;;18.80;99.90;;;;;;5053301;28;20410;-59
2023/08/20 03:01:22;;;;;;;43.97;39.80;;;18.80;99.90;;;;;;5054040;28;20510;-62
2023/08/20 03:03:48;;;;;;;44.95;39.33;;;19.70;99.90;;;;;;5057796;28;20509;-62
2023/08/20 03:06:14;;;;;;;46.95;41.95;;;19.30;99.90;;;;;;5051611;28;20037;-63
2023/08/20 03:08:39;;;;;;;43.72;39.50;;;18.90;99.90;;;;;;5046674;28;20036;-62
2023/08/20 03:11:05;;;;;;;43.63;39.13;;;19.60;99.90;;;;;;5051264;28;20041;-63
2023/08/20 03:13:31;;;;;;;41.58;37.38;;;19.90;99.90;;;;;;5053485;28;20127;-63
2023/08/20 03:15:57;;;;;;;43.70;39.20;;;19.90;99.90;;;;;;5055535;28;20037;-63
2023/08/20 03:18:22;;;;;;;43.38;39.03;;;19.60;99.90;;;;;;5049785;28;20037;-63
2023/08/20 03:20:48;;;;;;;41.05;37.20;;;20.00;99.90;;;;;;5049821;28;20462;-62
2023/08/20 03:23:13;;;;;;;44.03;38.88;;;18.90;99.90;;;;;;5057275;28;20041;-63
2023/08/20 03:25:39;;;;;;;44.90;39.80;;;19.70;99.90;;;;;;5051010;28;20110;-63
2023/08/20 03:28:04;;;;;;;39.92;35.78;;;18.90;99.90;;;;;;5050843;28;20201;-63
2023/08/20 03:30:31;;;;;;;40.80;36.72;;;19.30;99.90;;;;;;5057346;28;20049;-63
2023/08/20 03:32:57;;;;;;;38.25;33.80;;;20.10;99.90;;;;;;5030232;28;20041;-63
2023/08/20 03:35:22;;;;;;;36.90;33.58;;;19.00;99.90;;;;;;5043341;28;20515;-63
2023/08/20 03:37:48;;;;;;;40.47;36.58;;;19.70;99.90;;;;;;5049806;28;20032;-62
2023/08/20 03:40:14;;;;;;;38.35;34.35;;;19.90;99.90;;;;;;5050836;28;20060;-63
2023/08/20 03:42:40;;;;;;;39.95;35.78;;;18.90;99.90;;;;;;5050826;28;20044;-63
2023/08/20 03:45:06;;;;;;;38.38;34.45;;;19.20;99.90;;;;;;5045725;28;20469;-63
2023/08/20 03:47:31;;;;;;;39.53;35.38;;;19.70;99.90;;;;;;5051345;28;20140;-63
2023/08/20 03:49:57;;;;;;;39.90;36.03;;;19.10;99.90;;;;;;5050088;28;20136;-63
2023/08/20 03:52:22;;;;;;;38.03;34.30;;;20.00;99.90;;;;;;5050071;28;20029;-63
2023/08/20 03:54:48;;;;;;;38.05;34.60;;;19.80;99.90;;;;;;5050309;28;20041;-63
2023/08/20 03:57:14;;;;;;;38.53;34.67;;;18.80;99.90;;;;;;5050256;28;20491;-63
2023/08/20 03:59:39;;;;;;;37.22;33.80;;;18.70;99.90;;;;;;5050295;28;20111;-63
2023/08/20 04:02:05;;;;;;;40.70;36.75;;;19.00;99.90;;;;;;5048856;28;20044;-62
2023/08/20 04:04:31;;;;;;;44.40;37.85;;;19.10;99.90;;;;;;5050119;28;20124;-63
2023/08/20 04:06:57;;;;;;;42.35;37.78;;;18.80;99.90;;;;;;5050232;28;20051;-63
2023/08/20 04:09:22;;;;;;;41.65;37.50;;;19.60;99.90;;;;;;5050047;28;20032;-63
2023/08/20 04:11:48;;;;;;;45.42;38.00;;;19.70;99.90;;;;;;5048862;28;20064;-62
2023/08/20 04:14:13;;;;;;;41.30;37.00;;;18.60;99.90;;;;;;5053568;28;20059;-62
2023/08/20 04:16:39;;;;;;;41.10;36.80;;;18.90;99.90;;;;;;5043604;28;20033;-62
2023/08/20 04:19:04;;;;;;;40.22;36.25;;;18.70;99.90;;;;;;5048524;28;20045;-62
2023/08/20 04:21:30;;;;;;;41.05;36.75;;;18.80;99.90;;;;;;5049186;28;20407;-62
2023/08/20 04:23:55;;;;;;;44.47;36.20;;;19.80;99.90;;;;;;5050398;28;20051;-62
2023/08/20 04:26:21;;;;;;;39.10;35.30;;;19.90;99.90;;;;;;5048330;28;20441;-63
2023/08/20 04:28:46;;;;;;;41.10;36.83;;;19.80;99.90;;;;;;5049455;28;20029;-62
2023/08/20 04:31:12;;;;;;;40.88;36.25;;;19.70;99.90;;;;;;5048461;28;20041;-62
2023/08/20 04:33:37;;;;;;;40.00;35.97;;;19.00;99.90;;;;;;5050320;28;20037;-62
2023/08/20 04:36:03;;;;;;;45.25;37.72;;;18.80;99.90;;;;;;5048261;28;20122;-62
2023/08/20 04:38:29;;;;;;;47.67;38.28;;;19.40;99.90;;;;;;5046918;28;20048;-63
2023/08/20 04:40:54;;;;;;;51.13;38.00;;;19.70;99.90;;;;;;5043425;28;20115;-62
2023/08/20 04:43:20;;;;;;;45.28;36.95;;;20.60;99.90;;;;;;5049601;28;20576;-62
2023/08/20 04:45:45;;;;;;;40.25;35.58;;;20.50;99.90;;;;;;5045135;28;20094;-62
2023/08/20 04:48:11;;;;;;;39.15;34.45;;;20.70;99.90;;;;;;5062978;28;20040;-62
2023/08/20 04:50:36;;;;;;;42.28;33.72;;;19.50;99.90;;;;;;5054783;28;20043;-62
2023/08/20 04:53:02;;;;;;;39.30;34.65;;;19.60;99.90;;;;;;5050039;28;20033;-61
2023/08/20 04:55:28;;;;;;;52.42;36.50;;;19.60;99.90;;;;;;5046432;28;20750;-63
2023/08/20 04:57:54;;;;;;;49.67;34.30;;;19.80;99.90;;;;;;5049639;28;20045;-62
2023/08/20 05:00:19;;;;;;;37.05;32.03;;;19.80;99.90;;;;;;5050014;28;20096;-62
2023/08/20 05:02:45;;;;;;;37.92;33.38;;;20.50;99.90;;;;;;5049837;28;20048;-62
2023/08/20 05:05:11;;;;;;;45.63;34.40;;;21.80;99.90;;;;;;5059444;28;20887;-62
2023/08/20 05:07:37;;;;;;;46.15;31.10;;;20.90;99.90;;;;;;5048825;28;20041;-62
2023/08/20 05:10:02;;;;;;;43.10;33.40;;;20.20;99.90;;;;;;5049548;28;20037;-62
2023/08/20 05:12:28;;;;;;;52.80;33.30;;;20.20;99.90;;;;;;5049962;28;20045;-62
2023/08/20 05:14:54;;;;;;;44.30;33.13;;;20.90;99.90;;;;;;5064993;28;20056;-62
2023/08/20 05:17:19;;;;;;;44.03;33.95;;;20.70;99.90;;;;;;5046945;28;20064;-62
2023/08/20 05:19:45;;;;;;;41.75;33.00;;;20.40;99.90;;;;;;5050716;28;20102;-63
2023/08/20 05:22:11;;;;;;;42.20;33.95;;;22.20;99.90;;;;;;5041144;28;20037;-63
2023/08/20 05:24:37;;;;;;;46.55;32.13;;;21.80;99.90;;;;;;5045742;28;20040;-63
2023/08/20 05:27:14;;;;;;;44.25;32.83;;;22.30;99.90;;;;;;5048540;28;20040;-63
2023/08/20 05:29:40;;;;;;;49.58;32.60;;;21.50;99.90;;;;;;5032683;28;20056;-63
2023/08/20 05:32:06;;;;;;;45.00;30.88;;;22.10;99.90;;;;;;5025403;28;20030;-63
2023/08/20 05:34:32;;;;;;;42.90;31.85;;;20.50;99.90;;;;;;5056629;28;20042;-63
2023/08/20 05:36:57;;;;;;;40.40;30.83;;;22.40;99.90;;;;;;5020472;28;20037;-63
2023/08/20 05:39:23;;;;;;;40.40;31.58;;;22.60;99.90;;;;;;5017827;28;20047;-63
2023/08/20 05:41:49;;;;;;;41.80;31.58;;;22.60;99.90;;;;;;5026546;28;20025;-63
2023/08/20 05:44:14;;;;;;;46.90;32.22;;;20.90;99.90;;;;;;5026918;28;20033;-63
2023/08/20 05:46:40;;;;;;;45.88;31.67;;;22.70;99.90;;;;;;5026528;28;20037;-63
2023/08/20 05:49:06;;;;;;;37.35;31.50;;;22.80;99.90;;;;;;5025951;28;20044;-63
2023/08/20 05:51:32;;;;;;;55.97;34.22;;;20.80;99.90;;;;;;5027035;28;20121;-63
2023/08/20 05:53:57;;;;;;;43.05;33.42;;;20.90;99.90;;;;;;5024790;28;20179;-63
2023/08/20 05:56:23;;;;;;;42.85;31.48;;;20.90;99.90;;;;;;5026964;28;20048;-64
2023/08/20 05:58:48;;;;;;;46.00;33.00;;;21.10;99.90;;;;;;5038093;28;20041;-63
2023/08/20 06:01:14;;;;;;;48.90;32.55;;;21.30;99.90;;;;;;5018704;28;20065;-63
2023/08/20 06:03:39;;;;;;;47.00;32.60;;;22.70;99.90;;;;;;5023471;28;20048;-63
2023/08/20 06:06:05;;;;;;;40.58;33.17;;;23.30;99.90;;;;;;5025235;28;21839;-63
2023/08/20 06:08:31;;;;;;;49.75;34.65;;;22.60;99.90;;;;;;5027325;28;20407;-63
2023/08/20 06:10:56;;;;;;;56.10;35.15;;;23.50;99.90;;;;;;5028509;28;20163;-63
2023/08/20 06:13:22;;;;;;;46.08;34.72;;;23.40;99.90;;;;;;5022156;28;20033;-63
2023/08/20 06:15:47;;;;;;;48.38;34.47;;;22.00;99.90;;;;;;5031515;28;20120;-63
2023/08/20 06:18:13;;;;;;;44.03;35.35;;;23.60;99.90;;;;;;5031368;28;20037;-63
2023/08/20 06:20:38;;;;;;;50.65;36.10;;;23.60;99.90;;;;;;5033545;28;20094;-63
2023/08/20 06:23:04;;;;;;;49.45;34.88;;;23.20;99.90;;;;;;5027357;28;20038;-63
2023/08/20 06:25:30;;;;;;;46.97;34.58;;;22.00;99.90;;;;;;5031536;28;20049;-64
2023/08/20 06:27:55;;;;;;;50.95;36.65;;;23.40;99.90;;;;;;5027339;28;20083;-63
2023/08/20 06:30:21;;;;;;;47.72;36.38;;;23.00;99.90;;;;;;5026430;28;20068;-63
2023/08/20 06:32:46;;;;;;;51.55;36.60;;;22.10;99.90;;;;;;5032694;28;20117;-64
2023/08/20 06:35:12;;;;;;;50.88;37.13;;;22.40;99.90;;;;;;5032939;28;20045;-64
2023/08/20 06:37:41;;;;;;;50.97;38.10;;;23.70;99.90;;;;;;5032573;28;20061;-63
2023/08/20 06:40:07;;;;;;;44.90;37.05;;;23.90;99.90;;;;;;5025943;28;20727;-63
2023/08/20 06:42:33;;;;;;;48.70;38.10;;;22.20;99.90;;;;;;5028628;28;20038;-59
2023/08/20 06:44:58;;;;;;;45.97;36.53;;;23.90;99.90;;;;;;5032136;28;20041;-61
2023/08/20 06:47:24;;;;;;;50.10;37.55;;;23.70;99.90;;;;;;5031022;28;20037;-61
2023/08/20 06:49:50;;;;;;;47.05;36.22;;;22.80;99.90;;;;;;5035226;28;20045;-62
2023/08/20 06:52:16;;;;;;;51.55;36.95;;;22.80;99.90;;;;;;5026147;28;20033;-60
2023/08/20 06:54:42;;;;;;;48.25;36.28;;;23.40;99.90;;;;;;5030793;28;20079;-59
2023/08/20 06:57:07;;;;;;;50.17;36.92;;;23.70;99.90;;;;;;5018942;28;20442;-62
2023/08/20 06:59:33;;;;;;;44.40;36.38;;;24.20;99.90;;;;;;5026818;28;20057;-59
2023/08/20 07:01:58;;;;;;;47.25;36.22;;;22.90;99.90;;;;;;5033866;28;20053;-60
2023/08/20 07:04:24;;;;;;;52.42;36.75;;;23.30;99.90;;;;;;5033484;28;20387;-61
2023/08/20 07:06:51;;;;;;;46.50;37.25;;;22.90;99.90;;;;;;5033469;28;20045;-60
2023/08/20 07:09:16;;;;;;;52.65;37.35;;;23.40;99.90;;;;;;5029284;28;20034;-61
2023/08/20 07:11:42;;;;;;;56.05;37.70;;;24.20;99.90;;;;;;5024540;28;20060;-61
2023/08/20 07:14:07;;;;;;;53.47;38.55;;;24.00;99.90;;;;;;5017998;28;20090;-61
2023/08/20 07:16:33;;;;;;;44.47;37.15;;;24.40;99.90;;;;;;5024194;28;20073;-61
2023/08/20 07:18:58;;;;;;;47.53;37.47;;;23.70;99.90;;;;;;5027167;28;20049;-63
2023/08/20 07:21:24;;;;;;;45.67;36.97;;;23.00;99.90;;;;;;5030617;28;20071;-62
2023/08/20 07:23:49;;;;;;;47.25;37.20;;;23.80;99.90;;;;;;5023534;28;20507;-67
2023/08/20 07:26:15;;;;;;;47.72;36.47;;;23.20;99.90;;;;;;5026870;28;20090;-62
2023/08/20 07:28:56;;;;;;;48.15;37.00;;;23.80;99.90;;;;;;5028193;28;20060;-60
2023/08/20 07:31:24;;;;;;;46.95;37.30;;;24.00;99.90;;;;;;5027293;28;21815;-61
2023/08/20 07:33:51;;;;;;;48.88;37.83;;;24.50;99.90;;;;;;5032830;28;20041;-61
2023/08/20 07:36:17;;;;;;;52.15;37.08;;;23.80;99.90;;;;;;5030991;28;21454;-61
2023/08/20 07:38:43;;;;;;;53.17;36.50;;;24.50;99.90;;;;;;5032181;28;20415;-61
2023/08/20 07:41:10;;;;;;;47.35;36.65;;;24.50;99.90;;;;;;5028187;28;20045;-61
2023/08/20 07:43:37;;;;;;;47.40;37.47;;;23.60;99.90;;;;;;5025115;28;20049;-61
2023/08/20 07:46:03;;;;;;;50.08;36.20;;;24.60;99.90;;;;;;5030809;28;20042;-61
2023/08/20 07:48:29;;;;;;;54.38;37.30;;;24.00;99.90;;;;;;5032331;28;20042;-60
2023/08/20 07:50:54;;;;;;;48.50;36.42;;;24.10;99.90;;;;;;5033981;28;20399;-60
2023/08/20 07:53:20;;;;;;;50.08;36.35;;;25.20;99.90;;;;;;5029838;28;20045;-60
2023/08/20 07:55:45;;;;;;;47.45;35.05;;;24.20;99.90;;;;;;5031419;28;20037;-61
2023/08/20 07:58:11;;;;;;;48.20;36.78;;;24.80;99.90;;;;;;5030339;28;20041;-61
2023/08/20 08:00:37;;;;;;;42.90;35.05;;;24.70;99.90;;;;;;5029851;28;20085;-60
2023/08/20 08:03:02;;;;;;;41.40;35.00;;;24.70;99.90;;;;;;5027232;28;20042;-62
2023/08/20 08:05:28;;;;;;;46.22;34.90;;;24.30;99.90;;;;;;5029791;28;20133;-60
2023/08/20 08:07:54;;;;;;;43.50;33.58;;;24.70;99.90;;;;;;5030562;28;20045;-61
2023/08/20 08:10:20;;;;;;;45.78;32.97;;;24.80;99.90;;;;;;5027749;28;20037;-60
2023/08/20 08:12:45;;;;;;;45.95;33.97;;;24.40;99.90;;;;;;5028087;28;20049;-61
2023/08/20 08:15:12;;;;;;;41.72;34.38;;;25.20;99.90;;;;;;5029996;28;20033;-61
2023/08/20 08:17:37;;;;;;;36.75;28.15;;;25.00;99.90;;;;;;5029603;28;20052;-63
2023/08/20 08:20:03;;;;;;;42.28;29.83;;;25.40;99.90;;;;;;5030692;28;20033;-60
2023/08/20 08:22:28;;;;;;;38.78;30.15;;;25.50;99.90;;;;;;5029497;28;20042;-61
2023/08/20 08:24:54;;;;;;;42.25;31.77;;;25.30;99.90;;;;;;5025273;28;20407;-61
2023/08/20 08:27:19;;;;;;;40.63;32.17;;;25.30;99.90;;;;;;5030146;28;20479;-61
2023/08/20 08:29:45;;;;;;;42.63;32.33;;;24.90;99.90;;;;;;5028953;28;20033;-61
2023/08/20 08:32:11;;;;;;;37.75;30.65;;;25.70;99.90;;;;;;5028477;28;20037;-61
2023/08/20 08:34:36;;;;;;;39.38;31.10;;;25.50;99.90;;;;;;5029027;28;20076;-61
2023/08/20 08:37:02;;;;;;;38.13;28.35;;;26.20;99.90;;;;;;5053955;28;20448;-61
2023/08/20 08:39:27;;;;;;;37.28;28.02;;;26.30;99.90;;;;;;5029951;28;20480;-60
2023/08/20 08:42:02;;;;;;;34.15;27.08;;;26.40;99.90;;;;;;5028833;28;20037;-61
2023/08/20 08:44:28;;;;;;;36.70;26.83;;;26.60;99.90;;;;;;5029847;28;20405;-61
2023/08/20 08:46:54;;;;;;;39.60;27.27;;;26.70;99.90;;;;;;5034221;28;20288;-61
2023/08/20 08:49:19;;;;;;;31.60;26.52;;;26.60;99.90;;;;;;5029916;28;20051;-62
2023/08/20 08:51:46;;;;;;;34.35;27.30;;;26.60;99.90;;;;;;5032479;28;20120;-61
2023/08/20 08:54:13;;;;;;;37.17;26.95;;;26.80;92.80;;;;;;5034192;28;20116;-61
2023/08/20 08:56:39;;;;;;;31.23;25.75;;;27.10;1.00;;;;;;5028742;28;20048;-60
2023/08/20 08:59:05;;;;;;;31.45;25.00;;;27.30;99.90;;;;;;5032310;28;20058;-60
2023/08/20 09:01:31;;;;;;;30.35;25.27;;;27.30;99.90;;;;;;5024745;28;20053;-61
2023/08/20 09:03:57;;;;;;;32.85;25.38;;;27.40;1.00;;;;;;5036172;28;20045;-61
2023/08/20 09:06:22;;;;;;;32.00;24.73;;;27.40;1.00;;;;;;5028798;28;20033;-62
2023/08/20 09:08:48;;;;;;;35.53;27.20;;;27.40;1.00;;;;;;5029496;28;20041;-60
2023/08/20 09:11:13;;;;;;;32.78;26.20;;;27.80;1.00;;;;;;5029639;28;20581;-61
2023/08/20 09:13:41;;;;;;;30.80;25.63;;;27.40;95.20;;;;;;5028891;28;20033;-60
2023/08/20 09:16:11;;;;;;;31.60;25.88;;;27.30;1.00;;;;;;5025113;28;20042;-60
2023/08/20 09:18:41;;;;;;;33.13;27.00;;;27.40;99.90;;;;;;5031297;28;20038;-60
2023/08/20 09:21:11;;;;;;;30.75;25.65;;;27.40;99.90;;;;;;5026120;28;20030;-60
2023/08/20 09:23:38;;;;;;;32.55;27.05;;;26.90;95.20;;;;;;5029684;28;20151;-61
2023/08/20 09:26:05;;;;;;;36.30;26.90;;;27.20;99.90;;;;;;5028372;28;20042;-60
2023/08/20 09:28:47;;;;;;;33.60;24.90;;;27.50;99.90;;;;;;5031486;28;20495;-62
2023/08/20 09:31:13;;;;;;;31.77;25.98;;;27.40;85.10;;;;;;5022932;28;20038;-61
2023/08/20 09:33:53;;;;;;;38.78;27.40;;;27.40;55.10;;;;;;5033008;28;20034;-60
2023/08/20 09:36:19;;;;;;;35.33;25.90;;;27.50;1.00;;;;;;5042880;28;20044;-60
2023/08/20 09:38:44;;;;;;;33.88;25.55;;;27.40;1.00;;;;;;5034626;28;20064;-62
2023/08/20 09:41:12;;;;;;;33.75;23.55;;;27.50;1.00;;;;;;5039163;28;20102;-61
2023/08/20 09:43:38;;;;;;;30.88;23.58;;;27.40;1.00;;;;;;5022331;28;20080;-60
2023/08/20 09:46:05;;;;;;;32.67;25.55;;;27.20;1.00;;;;;;5027095;28;20037;-60
2023/08/20 09:48:35;;;;;;;37.67;24.27;;;27.20;1.00;;;;;;5033146;28;20034;-60
2023/08/20 09:51:05;;;;;;;32.50;24.58;;;27.40;19.50;;;;;;5035531;28;20483;-61
2023/08/20 09:53:49;;;;;;;26.05;23.25;;;27.20;10.10;;;;;;5032598;28;20044;-61
2023/08/20 09:56:39;;;;;;;32.17;25.17;;;27.30;1.80;;;;;;5031625;28;20499;-61
2023/08/20 09:59:05;;;;;;;29.80;22.20;;;27.20;1.00;;;;;;5032987;28;20064;-63
2023/08/20 10:01:30;;;;;;;26.50;21.42;;;27.30;1.00;;;;;;5026093;28;20505;-61
2023/08/20 10:03:57;;;;;;;26.85;22.33;;;27.30;1.00;;;;;;5032209;28;20037;-60
2023/08/20 10:06:23;;;;;;;27.58;20.45;;;27.30;99.90;;;;;;5031514;28;20038;-60
2023/08/20 10:08:51;;;;;;;23.10;19.70;;;27.20;99.90;;;;;;5032888;28;20499;-62
2023/08/20 10:11:17;;;;;;;24.52;21.90;;;27.30;99.90;;;;;;5031786;28;20034;-61
2023/08/20 10:13:43;;;;;;;22.73;19.48;;;27.40;91.90;;;;;;5033696;28;20069;-60
2023/08/20 10:16:11;;;;;;;26.23;18.20;;;27.50;63.70;;;;;;5032772;28;20052;-62
2023/08/20 10:18:37;;;;;;;25.17;18.00;;;27.50;3.80;;;;;;5033943;28;20041;-61
2023/08/20 10:21:04;;;;;;;23.38;19.40;;;27.60;1.00;;;;;;5038561;28;20037;-60
2023/08/20 10:23:30;;;;;;;27.15;18.67;;;27.70;1.00;;;;;;5032323;28;20128;-63
2023/08/20 10:26:07;;;;;;;20.27;16.80;;;27.70;1.00;;;;;;5032422;28;20045;-62
2023/08/20 10:28:33;;;;;;;22.80;18.17;;;27.90;1.00;;;;;;5035492;28;20045;-63
2023/08/20 10:31:10;;;;;;;21.30;17.88;;;27.90;1.00;;;;;;5031088;28;20407;-62
2023/08/20 10:33:49;;;;;;;26.23;18.70;;;27.90;99.90;;;;;;5031245;28;20056;-62
2023/08/20 10:36:27;;;;;;;23.83;18.55;;;27.90;99.90;;;;;;5032403;28;20071;-62
2023/08/20 10:38:58;;;;;;;27.48;21.33;;;27.90;99.90;;;;;;5031386;28;20052;-62
2023/08/20 10:41:28;;;;;;;28.60;21.75;;;27.90;99.90;;;;;;5030842;28;20056;-63
2023/08/20 10:43:57;;;;;;;22.95;19.58;;;28.00;99.90;;;;;;5022965;28;20041;-62
2023/08/20 10:46:24;;;;;;;24.20;18.83;;;28.10;99.90;;;;;;5019271;28;20854;-63
2023/08/20 10:48:54;;;;;;;26.33;17.67;;;28.00;99.90;;;;;;5048640;28;20041;-63
2023/08/20 10:51:39;;;;;;;25.52;19.90;;;28.00;99.90;;;;;;5032005;28;20542;-62
2023/08/20 10:54:07;;;;;;;25.52;19.77;;;28.00;99.90;;;;;;5031358;28;20037;-62
2023/08/20 10:56:54;;;;;;;25.27;19.30;;;27.90;99.90;;;;;;5020765;28;20060;-62
2023/08/20 10:59:26;;;;;;;21.95;17.73;;;28.10;99.90;;;;;;5025491;28;20049;-62
2023/08/20 11:01:53;;;;;;;23.33;19.83;;;28.30;99.90;;;;;;5032079;28;20029;-62
2023/08/20 11:04:20;;;;;;;21.40;17.35;;;28.40;99.90;;;;;;5035063;28;20390;-63
2023/08/20 11:06:49;;;;;;;22.38;18.38;;;28.70;93.40;;;;;;5019329;28;20042;-63
2023/08/20 11:09:15;;;;;;;26.77;19.15;;;28.80;52.40;;;;;;5031552;28;20073;-62
2023/08/20 11:11:41;;;;;;;19.02;17.00;;;29.00;57.90;;;;;;5029307;28;20077;-63
2023/08/20 11:14:11;;;;;;;27.00;20.10;;;29.20;7.20;;;;;;5031406;28;20451;-63
2023/08/20 11:16:37;;;;;;;19.88;17.75;;;29.30;1.00;;;;;;5029801;28;20049;-63
2023/08/20 11:19:08;;;;;;;27.38;20.77;;;29.10;1.00;;;;;;5036338;28;20486;-63
2023/08/20 11:21:34;;;;;;;23.60;19.27;;;28.70;1.00;;;;;;5030286;28;20049;-63
2023/08/20 11:24:01;;;;;;;27.25;20.58;;;28.40;1.00;;;;;;5034524;28;20047;-63
2023/08/20 11:26:26;;;;;;;23.50;19.42;;;28.20;1.00;;;;;;5029857;28;20037;-63
2023/08/20 11:28:52;;;;;;;23.63;18.15;;;28.00;1.00;;;;;;5032335;28;20116;-62
2023/08/20 11:31:19;;;;;;;21.27;18.98;;;27.90;1.00;;;;;;5030102;28;20088;-62
2023/08/20 11:33:44;;;;;;;22.98;19.55;;;27.90;1.00;;;;;;5032863;28;20373;-62
2023/08/20 11:36:10;;;;;;;22.67;18.92;;;27.70;1.00;;;;;;5037024;28;20053;-62
2023/08/20 11:38:36;;;;;;;22.05;18.95;;;27.90;12.50;;;;;;5030294;28;20479;-64
2023/08/20 11:41:02;;;;;;;24.15;18.75;;;27.80;26.40;;;;;;5023746;28;20041;-63
2023/08/20 11:43:28;;;;;;;20.70;17.27;;;27.80;14.50;;;;;;5024995;28;20041;-63
2023/08/20 11:45:54;;;;;;;19.35;17.38;;;27.80;1.00;;;;;;5031513;28;20065;-62
2023/08/20 11:48:21;;;;;;;24.13;17.05;;;27.50;1.00;;;;;;5039266;28;20065;-62
2023/08/20 11:50:47;;;;;;;18.60;16.48;;;27.50;1.00;;;;;;5025860;28;20034;-63
2023/08/20 11:53:13;;;;;;;28.35;19.73;;;27.50;1.00;;;;;;5041796;28;20090;-62
2023/08/20 11:55:40;;;;;;;21.38;16.17;;;27.60;1.00;;;;;;5030451;28;20095;-63
2023/08/20 11:58:08;;;;;;;22.70;17.52;;;27.70;1.00;;;;;;5035548;28;20080;-63
2023/08/20 12:00:33;;;;;;;19.52;17.52;;;27.70;1.00;;;;;;5024227;28;20095;-63
2023/08/20 12:02:59;;;;;;;19.90;17.02;;;27.60;1.00;;;;;;5027190;28;20124;-63
2023/08/20 12:05:28;;;;;;;24.30;17.15;;;27.50;1.00;;;;;;5024752;28;20042;-63
2023/08/20 12:08:01;;;;;;;21.25;17.65;;;27.60;1.00;;;;;;5028536;28;20561;-63
2023/08/20 12:10:28;;;;;;;18.58;16.55;;;27.50;1.00;;;;;;5020263;28;20122;-62
2023/08/20 12:12:55;;;;;;;20.67;18.23;;;27.40;1.00;;;;;;5037655;28;20079;-63
2023/08/20 12:15:21;;;;;;;21.88;16.80;;;27.30;1.00;;;;;;5025281;28;20120;-63
2023/08/20 12:18:08;;;;;;;18.70;16.67;;;27.40;1.00;;;;;;5024591;28;20037;-62
2023/08/20 12:20:35;;;;;;;21.67;19.30;;;27.30;1.00;;;;;;5015514;28;20103;-63
2023/08/20 12:23:05;;;;;;;22.05;16.70;;;27.30;1.00;;;;;;5028464;28;20564;-63
2023/08/20 12:25:34;;;;;;;24.58;18.00;;;27.30;1.00;;;;;;5032019;28;20049;-63
2023/08/20 12:28:01;;;;;;;22.60;18.83;;;27.30;1.00;;;;;;5024249;28;20067;-62